Time;durP1;ratioP1;P1;durP2;ratioP2;P2;SDS_P1;SDS_P2;PMS_P1;PMS_P2;Temp;Humidity;BMP_temperature;BMP_pressure;BME280_temperature;BME280_humidity;BME280_pressure;Samples;Min_cycle;Max_cycle;Signal;HPM_P1;HPM_P2
2022/06/25 00:09:51;;;;;;;1.57;1.10;;;19.50;46.30;;;;;;10421786;28;20232;-74
2022/06/25 00:14:55;;;;;;;2.57;1.10;;;19.50;46.30;;;;;;10416521;28;20229;-73
2022/06/25 00:19:59;;;;;;;1.27;1.17;;;19.50;47.00;;;;;;10418383;28;20228;-74
2022/06/25 00:25:02;;;;;;;1.30;1.20;;;19.50;46.50;;;;;;10425645;28;20740;-74
2022/06/25 00:30:08;;;;;;;1.33;1.23;;;19.40;46.50;;;;;;10421344;28;20229;-74
2022/06/25 00:35:12;;;;;;;1.30;1.03;;;19.40;47.60;;;;;;10422369;28;20332;-73
2022/06/25 00:40:15;;;;;;;1.20;1.10;;;19.30;46.90;;;;;;10418767;28;20222;-74
2022/06/25 00:45:20;;;;;;;1.97;1.43;;;19.30;46.80;;;;;;10421835;28;20239;-73
2022/06/25 00:50:23;;;;;;;1.43;1.33;;;19.30;47.60;;;;;;10419070;28;20241;-74
2022/06/25 00:55:30;;;;;;;1.20;1.20;;;19.30;46.90;;;;;;10423803;28;20774;-74
2022/06/25 01:00:35;;;;;;;1.33;1.23;;;19.30;47.10;;;;;;10422444;28;20233;-74
2022/06/25 01:05:39;;;;;;;1.27;1.20;;;19.40;47.50;;;;;;10422251;28;20272;-74
2022/06/25 01:10:42;;;;;;;1.30;1.20;;;19.40;46.90;;;;;;10422968;28;20237;-74
2022/06/25 01:15:47;;;;;;;2.10;1.30;;;19.40;47.00;;;;;;10423233;28;20712;-74
2022/06/25 01:20:50;;;;;;;1.23;1.17;;;19.40;47.50;;;;;;10418466;28;20239;-74
2022/06/25 01:25:55;;;;;;;1.10;1.07;;;19.40;47.00;;;;;;10420575;28;20229;-74
2022/06/25 01:30:58;;;;;;;1.20;1.10;;;19.40;47.70;;;;;;10417278;28;20279;-74
2022/06/25 01:36:01;;;;;;;1.10;1.10;;;19.50;46.90;;;;;;10416881;28;20229;-74
2022/06/25 01:41:06;;;;;;;1.73;1.10;;;19.50;47.00;;;;;;10428497;28;21202;-74
2022/06/25 01:46:09;;;;;;;2.13;1.10;;;19.50;47.60;;;;;;10421060;28;20236;-74
2022/06/25 01:51:13;;;;;;;2.53;1.20;;;19.50;47.00;;;;;;10421599;28;20220;-74
2022/06/25 01:56:18;;;;;;;1.93;1.20;;;19.50;47.30;;;;;;10419436;28;20236;-73
2022/06/25 02:01:21;;;;;;;1.47;1.13;;;19.50;47.90;;;;;;10414242;28;20221;-73
2022/06/25 02:06:24;;;;;;;2.90;1.30;;;19.50;47.30;;;;;;10413777;28;20311;-73
2022/06/25 02:11:36;;;;;;;1.50;1.40;;;19.50;47.40;;;;;;10411960;28;20252;-73
2022/06/25 02:16:39;;;;;;;1.13;1.03;;;19.60;47.70;;;;;;10413744;28;20229;-73
2022/06/25 02:21:42;;;;;;;1.43;1.20;;;19.60;47.10;;;;;;10412794;28;20257;-73
2022/06/25 02:26:47;;;;;;;1.43;1.33;;;19.60;47.20;;;;;;10417920;28;20238;-73
2022/06/25 02:31:50;;;;;;;2.63;1.70;;;19.60;47.90;;;;;;10416100;28;20233;-74
2022/06/25 02:36:54;;;;;;;1.07;1.07;;;19.70;47.40;;;;;;10416352;28;20225;-74
2022/06/25 02:41:58;;;;;;;1.47;1.37;;;19.70;47.40;;;;;;10415636;28;20229;-74
2022/06/25 02:47:01;;;;;;;1.93;1.37;;;19.70;47.70;;;;;;10413258;28;20230;-74
2022/06/25 02:52:06;;;;;;;1.30;1.20;;;19.70;47.40;;;;;;10413211;28;20238;-74
2022/06/25 03:02:31;;;;;;;1.50;1.40;;;19.80;47.50;;;;;;10410694;28;20240;-74
2022/06/25 03:07:35;;;;;;;1.30;1.20;;;19.80;47.10;;;;;;10415652;28;20694;-74
2022/06/25 03:12:40;;;;;;;1.80;1.50;;;19.90;47.20;;;;;;10418401;28;20331;-74
2022/06/25 03:17:43;;;;;;;1.53;1.43;;;19.90;47.60;;;;;;10414557;28;20233;-74
2022/06/25 03:22:46;;;;;;;2.13;1.40;;;19.90;47.10;;;;;;10416616;28;20229;-74
2022/06/25 03:27:51;;;;;;;1.70;1.50;;;19.90;47.00;;;;;;10416263;28;20251;-74
2022/06/25 03:32:54;;;;;;;3.13;1.50;;;19.90;47.60;;;;;;10429516;28;20731;-74
2022/06/25 03:37:58;;;;;;;1.67;1.50;;;19.90;47.00;;;;;;10427623;28;20229;-74
2022/06/25 03:43:03;;;;;;;1.60;1.30;;;19.90;47.30;;;;;;10421694;28;20232;-74
2022/06/25 03:48:06;;;;;;;3.70;1.50;;;19.90;47.50;;;;;;10426537;28;20221;-74
2022/06/25 03:53:10;;;;;;;1.57;1.47;;;19.80;47.20;;;;;;10423769;28;20217;-73
2022/06/25 03:58:14;;;;;;;1.77;1.60;;;19.80;47.40;;;;;;10425529;28;20896;-74
2022/06/25 04:03:18;;;;;;;2.20;1.60;;;19.80;47.70;;;;;;10420323;28;20882;-74
2022/06/25 04:08:21;;;;;;;1.73;1.57;;;19.90;47.40;;;;;;10423180;28;20239;-74
2022/06/25 04:13:26;;;;;;;3.37;1.70;;;19.80;47.40;;;;;;10428085;28;20235;-74
2022/06/25 04:18:31;;;;;;;2.73;1.93;;;19.80;48.10;;;;;;10418155;28;20236;-74
2022/06/25 04:23:34;;;;;;;1.73;1.40;;;19.90;47.70;;;;;;10423416;28;20243;-75
2022/06/25 04:34:00;;;;;;;3.13;2.07;;;19.90;48.00;;;;;;10425473;28;20774;-74
2022/06/25 04:39:04;;;;;;;1.93;1.70;;;20.00;47.80;;;;;;10427142;28;20217;-74
2022/06/25 04:44:08;;;;;;;2.13;1.80;;;20.00;47.70;;;;;;10421578;28;20343;-74
2022/06/25 04:49:11;;;;;;;1.90;1.57;;;20.00;48.10;;;;;;10417512;28;20243;-74
2022/06/25 04:54:15;;;;;;;1.60;1.50;;;20.00;47.60;;;;;;10422734;28;20740;-75
2022/06/25 04:59:19;;;;;;;1.90;1.67;;;20.00;47.70;;;;;;10419524;28;20222;-74
2022/06/25 05:04:23;;;;;;;3.10;1.90;;;20.00;48.30;;;;;;10423521;28;20226;-74
2022/06/25 05:09:26;;;;;;;3.03;1.67;;;20.00;47.90;;;;;;10413920;28;20291;-74
2022/06/25 05:14:31;;;;;;;1.63;1.53;;;20.00;48.40;;;;;;10417966;28;20225;-74
2022/06/25 05:19:34;;;;;;;1.73;1.60;;;20.10;48.70;;;;;;10412207;28;20681;-74
2022/06/25 05:24:38;;;;;;;2.73;1.77;;;20.10;48.20;;;;;;10422629;28;20720;-74
2022/06/25 05:29:42;;;;;;;2.50;1.80;;;20.10;48.40;;;;;;10421397;28;20888;-74
2022/06/25 05:34:46;;;;;;;2.27;1.77;;;20.20;48.90;;;;;;10419366;28;20623;-74
2022/06/25 05:39:49;;;;;;;2.00;1.77;;;20.20;48.60;;;;;;10424322;28;20228;-74
2022/06/25 05:44:53;;;;;;;2.00;1.90;;;20.30;48.30;;;;;;10422191;28;20239;-74
2022/06/25 05:49:57;;;;;;;2.07;1.70;;;20.40;48.90;;;;;;10419135;28;20218;-74
2022/06/25 05:55:00;;;;;;;1.97;1.87;;;20.40;48.30;;;;;;10418335;28;20241;-74
2022/06/25 06:00:06;;;;;;;2.53;1.70;;;20.50;48.30;;;;;;10423018;28;20214;-74
2022/06/25 06:05:09;;;;;;;3.17;1.90;;;20.50;48.30;;;;;;10416023;28;20233;-74
2022/06/25 06:10:12;;;;;;;3.33;1.83;;;20.60;48.00;;;;;;10420038;28;20701;-73
2022/06/25 06:15:17;;;;;;;1.90;1.70;;;20.60;48.30;;;;;;10432524;28;20236;-75
2022/06/25 06:20:20;;;;;;;2.67;1.47;;;20.70;49.40;;;;;;10438084;28;20225;-74
2022/06/25 06:25:24;;;;;;;1.47;1.40;;;20.70;48.70;;;;;;10438845;28;20229;-75
2022/06/25 06:30:28;;;;;;;2.33;1.80;;;20.80;48.90;;;;;;10438483;28;20252;-76
2022/06/25 06:35:38;;;;;;;1.43;1.33;;;21.00;48.60;;;;;;10437315;28;20229;-75
2022/06/25 06:40:41;;;;;;;2.70;1.40;;;21.20;48.30;;;;;;10434864;28;20253;-72
2022/06/25 06:45:46;;;;;;;2.20;1.40;;;21.30;48.10;;;;;;10415322;28;20237;-73
2022/06/25 06:50:51;;;;;;;1.27;1.20;;;21.50;48.20;;;;;;10414303;28;20559;-73
2022/06/25 06:55:55;;;;;;;2.13;1.40;;;21.60;47.80;;;;;;10414724;28;20312;-72
2022/06/25 07:00:59;;;;;;;1.53;1.43;;;21.80;47.60;;;;;;10424267;28;20235;-73
2022/06/25 07:06:02;;;;;;;1.60;1.50;;;21.90;47.60;;;;;;10426992;28;20225;-73
2022/06/25 07:11:28;;;;;;;1.57;1.27;;;22.00;47.30;;;;;;10423826;28;20244;-73
2022/06/25 07:16:32;;;;;;;1.20;1.20;;;22.10;47.60;;;;;;10425964;28;20947;-72
2022/06/25 07:21:36;;;;;;;2.53;1.30;;;22.20;47.60;;;;;;10420569;28;20220;-73
2022/06/25 07:26:39;;;;;;;1.40;1.30;;;22.30;47.00;;;;;;10417477;28;20244;-73
2022/06/25 07:31:43;;;;;;;2.03;1.60;;;22.30;46.80;;;;;;10432081;28;20233;-73
2022/06/25 07:36:50;;;;;;;1.50;1.40;;;22.30;46.10;;;;;;10426316;28;20306;-73
2022/06/25 07:41:54;;;;;;;2.77;1.73;;;22.30;46.50;;;;;;10427095;28;20232;-73
2022/06/25 07:46:59;;;;;;;2.37;1.47;;;22.40;46.30;;;;;;10420948;28;20237;-72
2022/06/25 07:52:03;;;;;;;1.60;1.50;;;22.30;46.30;;;;;;10422210;28;20271;-73
2022/06/25 07:57:06;;;;;;;1.60;1.50;;;22.40;46.30;;;;;;10424785;28;20653;-73
2022/06/25 08:02:11;;;;;;;2.47;1.43;;;22.40;46.30;;;;;;10425822;28;20658;-73
2022/06/25 08:07:14;;;;;;;1.50;1.40;;;22.40;46.00;;;;;;10419671;28;20229;-74
2022/06/25 08:12:17;;;;;;;1.57;1.47;;;22.50;46.20;;;;;;10423196;28;20224;-73
2022/06/25 08:17:22;;;;;;;1.77;1.60;;;22.50;46.00;;;;;;10428088;28;20229;-73
2022/06/25 08:22:25;;;;;;;1.80;1.60;;;22.50;45.90;;;;;;10420581;28;20235;-73
2022/06/25 08:27:28;;;;;;;2.27;1.57;;;22.70;46.00;;;;;;10438351;28;20234;-73
2022/06/25 08:32:34;;;;;;;2.70;1.50;;;22.80;46.00;;;;;;10430853;28;20267;-73
2022/06/25 08:37:38;;;;;;;1.37;1.37;;;22.90;45.30;;;;;;10425450;28;20234;-73
2022/06/25 08:42:41;;;;;;;1.63;1.53;;;23.10;45.40;;;;;;10430633;28;20229;-73
2022/06/25 08:47:47;;;;;;;1.53;1.33;;;23.20;45.40;;;;;;10418201;28;20658;-73
2022/06/25 08:52:53;;;;;;;1.80;1.70;;;23.30;44.40;;;;;;10431217;28;20264;-73
2022/06/25 08:57:56;;;;;;;1.60;1.50;;;23.50;44.60;;;;;;10421939;28;20232;-73
2022/06/25 09:03:01;;;;;;;1.43;1.20;;;23.60;44.20;;;;;;10425594;28;20896;-72
2022/06/25 09:08:06;;;;;;;1.47;1.40;;;23.70;43.70;;;;;;10419220;28;20817;-72
2022/06/25 09:13:12;;;;;;;1.70;1.60;;;23.80;44.20;;;;;;10429270;28;20232;-72
2022/06/25 09:18:18;;;;;;;1.60;1.50;;;24.00;43.80;;;;;;10425870;28;20704;-72
2022/06/25 09:23:21;;;;;;;1.30;1.30;;;24.20;43.20;;;;;;10426129;28;20271;-74
2022/06/25 09:28:30;;;;;;;1.43;1.17;;;24.40;44.20;;;;;;10420912;28;20263;-72
2022/06/25 09:33:36;;;;;;;1.50;1.37;;;24.60;41.60;;;;;;10428908;28;21141;-72
2022/06/25 09:38:49;;;;;;;1.30;1.20;;;24.80;42.00;;;;;;10421320;28;20329;-72
2022/06/25 09:43:53;;;;;;;1.53;1.27;;;25.00;41.50;;;;;;10416960;28;20290;-72
2022/06/25 09:48:58;;;;;;;1.13;1.13;;;25.30;42.10;;;;;;10414805;28;20775;-72
2022/06/25 09:54:02;;;;;;;1.60;1.50;;;25.40;41.20;;;;;;10422586;28;20240;-73
2022/06/25 09:59:06;;;;;;;1.53;1.40;;;25.60;41.30;;;;;;10418965;28;20749;-73
2022/06/25 10:04:11;;;;;;;1.17;1.17;;;25.70;40.40;;;;;;10418231;28;20238;-73
2022/06/25 10:09:17;;;;;;;1.73;1.20;;;25.70;40.10;;;;;;10418894;28;20224;-72
2022/06/25 10:14:20;;;;;;;1.10;1.10;;;25.90;40.10;;;;;;10410883;28;20226;-72
2022/06/25 10:19:26;;;;;;;1.10;1.10;;;26.00;39.20;;;;;;10410598;28;20257;-73
2022/06/25 10:24:29;;;;;;;1.17;1.10;;;26.10;39.10;;;;;;10427253;28;20232;-73
2022/06/25 10:29:33;;;;;;;1.37;1.20;;;26.30;39.00;;;;;;10418155;28;20758;-73
2022/06/25 10:34:37;;;;;;;1.37;1.20;;;26.40;39.70;;;;;;10421775;28;20229;-73
2022/06/25 10:39:41;;;;;;;1.53;1.07;;;26.40;38.00;;;;;;10426602;28;20224;-73
2022/06/25 10:44:44;;;;;;;1.70;1.10;;;26.60;38.20;;;;;;10412560;28;20225;-73
2022/06/25 10:49:48;;;;;;;1.00;1.00;;;26.80;37.40;;;;;;10417359;28;20735;-73
2022/06/25 10:54:52;;;;;;;2.60;1.20;;;27.00;37.00;;;;;;10426461;28;21025;-73
2022/06/25 11:00:02;;;;;;;1.20;1.20;;;27.00;36.50;;;;;;10404156;28;20225;-73
2022/06/25 11:05:18;;;;;;;0.80;0.80;;;27.10;35.10;;;;;;10415491;28;20231;-72
2022/06/25 11:10:35;;;;;;;0.93;0.93;;;27.20;33.00;;;;;;10427874;28;20247;-72
2022/06/25 11:15:43;;;;;;;0.93;0.93;;;27.20;32.90;;;;;;10425617;28;20224;-71
2022/06/25 11:20:48;;;;;;;0.90;0.90;;;27.20;33.90;;;;;;10426104;28;20740;-71
2022/06/25 11:31:15;;;;;;;0.90;0.90;;;27.40;34.80;;;;;;10421536;28;20233;-71
2022/06/25 11:36:21;;;;;;;1.60;0.90;;;27.50;35.40;;;;;;10418760;28;20229;-71
2022/06/25 11:41:26;;;;;;;1.83;1.73;;;27.60;33.00;;;;;;10424285;28;20618;-71
2022/06/25 11:46:30;;;;;;;1.20;1.10;;;27.70;35.40;;;;;;10415002;28;20331;-72
2022/06/25 11:51:34;;;;;;;2.10;1.00;;;27.90;34.40;;;;;;10426883;28;20233;-71
2022/06/25 11:56:38;;;;;;;0.90;0.90;;;28.00;32.30;;;;;;10428156;28;20225;-71
2022/06/25 12:01:41;;;;;;;1.00;1.00;;;28.10;34.00;;;;;;10426345;28;20221;-71
2022/06/25 12:06:47;;;;;;;0.90;0.90;;;28.20;33.10;;;;;;10425882;28;20233;-71
2022/06/25 12:11:55;;;;;;;1.10;1.10;;;28.20;31.90;;;;;;10437250;28;20225;-71
2022/06/25 12:17:00;;;;;;;0.87;0.87;;;28.30;32.30;;;;;;10432799;28;20267;-72
2022/06/25 12:22:05;;;;;;;0.93;0.90;;;28.40;31.20;;;;;;10433227;28;20228;-72
2022/06/25 12:27:08;;;;;;;1.00;1.00;;;28.50;30.50;;;;;;10428048;28;20258;-72
2022/06/25 12:32:11;;;;;;;1.07;0.97;;;28.60;31.80;;;;;;10419242;28;20223;-72
2022/06/25 12:37:29;;;;;;;2.03;0.80;;;28.70;31.70;;;;;;10427380;28;20233;-74
2022/06/25 12:42:33;;;;;;;0.80;0.80;;;28.80;30.70;;;;;;10425134;28;20782;-73
2022/06/25 12:47:41;;;;;;;1.40;0.90;;;28.90;30.80;;;;;;10427742;28;20267;-73
2022/06/25 12:52:46;;;;;;;0.90;0.90;;;28.90;28.40;;;;;;10426437;28;20233;-72
2022/06/25 12:57:49;;;;;;;0.90;0.90;;;29.00;29.40;;;;;;10432360;28;20746;-72
2022/06/25 13:02:53;;;;;;;0.83;0.80;;;29.00;30.00;;;;;;10435414;28;20256;-73
2022/06/25 13:07:58;;;;;;;0.80;0.80;;;29.00;29.80;;;;;;10440131;28;20270;-73
2022/06/25 13:13:03;;;;;;;0.73;0.73;;;29.10;28.50;;;;;;10441037;28;20228;-73
2022/06/25 13:18:07;;;;;;;0.73;0.73;;;29.20;29.10;;;;;;10437984;28;20229;-73
2022/06/25 13:23:11;;;;;;;0.73;0.73;;;29.20;28.70;;;;;;10432847;28;20221;-75
2022/06/25 13:28:15;;;;;;;1.07;0.80;;;29.30;27.80;;;;;;10430145;28;20232;-75
2022/06/25 13:33:19;;;;;;;0.80;0.80;;;29.30;28.10;;;;;;10430076;28;20236;-75
2022/06/25 13:38:24;;;;;;;0.80;0.80;;;29.30;28.40;;;;;;10432100;28;20236;-75
2022/06/25 13:43:27;;;;;;;0.80;0.80;;;29.30;27.20;;;;;;10417651;28;20228;-75
2022/06/25 13:48:31;;;;;;;0.80;0.80;;;29.50;28.00;;;;;;10432557;28;20225;-74
2022/06/25 13:53:35;;;;;;;0.80;0.80;;;29.50;27.70;;;;;;10431052;28;20247;-75
2022/06/25 13:58:38;;;;;;;1.40;1.00;;;29.50;27.20;;;;;;10434946;28;20239;-74
2022/06/25 14:03:42;;;;;;;1.13;1.10;;;29.50;27.90;;;;;;10428391;28;20704;-74
2022/06/25 14:08:46;;;;;;;0.90;0.90;;;29.60;27.50;;;;;;10427532;28;20232;-74
2022/06/25 14:13:50;;;;;;;0.70;0.70;;;29.60;27.40;;;;;;10434919;28;20229;-74
2022/06/25 14:18:53;;;;;;;0.87;0.87;;;29.70;27.40;;;;;;10438453;28;20240;-74
2022/06/25 14:23:57;;;;;;;0.80;0.80;;;29.60;27.30;;;;;;10427715;28;20228;-74
2022/06/25 14:29:01;;;;;;;0.90;0.90;;;29.50;26.70;;;;;;10434732;28;20236;-74
2022/06/25 14:34:04;;;;;;;0.80;0.80;;;29.60;27.30;;;;;;10428579;28;20232;-74
2022/06/25 14:44:35;;;;;;;0.80;0.80;;;29.60;26.10;;;;;;10427213;28;20230;-74
2022/06/25 14:49:45;;;;;;;0.93;0.90;;;29.70;26.60;;;;;;10424899;28;20232;-74
2022/06/25 14:54:50;;;;;;;4.27;1.10;;;29.70;26.50;;;;;;10429345;28;20237;-74
2022/06/25 14:59:53;;;;;;;0.97;0.97;;;29.80;26.10;;;;;;10427735;28;20228;-74
2022/06/25 15:04:56;;;;;;;0.83;0.83;;;29.80;26.10;;;;;;10429285;28;20220;-74
2022/06/25 15:10:01;;;;;;;1.00;1.00;;;29.90;26.20;;;;;;10425125;28;20240;-74
2022/06/25 15:15:06;;;;;;;0.90;0.90;;;29.90;25.60;;;;;;10430796;28;20217;-74
2022/06/25 15:20:11;;;;;;;0.97;0.97;;;30.00;25.70;;;;;;10423796;28;20252;-73
2022/06/25 15:25:15;;;;;;;2.67;1.10;;;30.00;25.80;;;;;;10435391;28;20229;-73
2022/06/25 15:30:19;;;;;;;1.10;1.00;;;30.00;25.20;;;;;;10427191;28;20227;-74
2022/06/25 15:35:22;;;;;;;0.90;0.90;;;30.00;26.00;;;;;;10426976;28;20232;-74
2022/06/25 15:40:29;;;;;;;1.43;1.07;;;30.10;25.70;;;;;;10428598;28;20240;-74
2022/06/25 15:45:32;;;;;;;1.27;0.90;;;30.20;25.10;;;;;;10424392;28;20229;-73
2022/06/25 15:50:39;;;;;;;0.90;0.90;;;30.20;25.40;;;;;;10424954;28;20700;-74
2022/06/25 15:55:44;;;;;;;0.90;0.90;;;30.30;25.10;;;;;;10425545;28;20237;-74
2022/06/25 16:00:47;;;;;;;1.03;1.00;;;30.30;24.50;;;;;;10424975;28;20592;-74
2022/06/25 16:05:50;;;;;;;1.10;1.00;;;30.30;24.80;;;;;;10430555;28;20225;-75
2022/06/25 16:10:55;;;;;;;0.70;0.70;;;30.30;24.70;;;;;;10424529;28;20243;-74
2022/06/25 16:15:58;;;;;;;0.90;0.90;;;30.30;24.40;;;;;;10428035;28;20606;-74
2022/06/25 16:21:02;;;;;;;0.80;0.80;;;30.20;24.50;;;;;;10426815;28;20221;-74
2022/06/25 16:26:06;;;;;;;0.90;0.90;;;30.20;24.40;;;;;;10421683;28;20232;-74
2022/06/25 16:31:09;;;;;;;0.90;0.90;;;30.20;23.80;;;;;;10424652;28;20224;-74
2022/06/25 16:36:13;;;;;;;1.53;1.00;;;30.30;24.20;;;;;;10426524;28;20781;-74
2022/06/25 16:41:18;;;;;;;0.83;0.83;;;30.40;23.90;;;;;;10437822;28;20217;-74
2022/06/25 16:46:21;;;;;;;0.80;0.80;;;30.50;23.60;;;;;;10437239;28;20234;-73
2022/06/25 16:51:24;;;;;;;0.90;0.90;;;30.60;24.10;;;;;;10431119;28;20259;-74
2022/06/25 16:56:31;;;;;;;0.83;0.83;;;30.70;24.00;;;;;;10434189;28;20599;-75
2022/06/25 17:01:34;;;;;;;0.90;0.90;;;30.70;23.50;;;;;;10434142;28;20239;-74
2022/06/25 17:06:37;;;;;;;0.90;0.90;;;30.70;23.70;;;;;;10433658;28;20678;-75
2022/06/25 17:11:42;;;;;;;1.10;1.10;;;30.70;23.70;;;;;;10431608;28;20236;-75
2022/06/25 17:16:45;;;;;;;1.00;1.00;;;30.70;23.20;;;;;;10430731;28;20237;-74
2022/06/25 17:21:49;;;;;;;4.23;3.93;;;30.60;23.40;;;;;;10437285;28;20243;-74
2022/06/25 17:26:54;;;;;;;2.60;2.40;;;30.40;23.50;;;;;;10431943;28;20230;-74
2022/06/25 17:31:57;;;;;;;1.43;1.33;;;30.30;23.10;;;;;;10430165;28;20589;-75
2022/06/25 17:37:01;;;;;;;1.63;1.53;;;30.30;23.60;;;;;;10432169;28;20242;-75
2022/06/25 17:42:05;;;;;;;1.20;1.10;;;30.30;23.70;;;;;;10431880;28;20594;-74
2022/06/25 17:47:08;;;;;;;1.17;1.10;;;30.40;23.30;;;;;;10432829;28;20224;-74
2022/06/25 17:52:12;;;;;;;2.17;2.07;;;30.40;24.20;;;;;;10433404;28;20776;-74
2022/06/25 17:57:16;;;;;;;2.10;2.00;;;30.60;23.40;;;;;;10431093;28;20613;-74
2022/06/25 18:02:21;;;;;;;2.77;2.57;;;30.60;22.80;;;;;;10436215;28;20731;-74
2022/06/25 18:07:25;;;;;;;2.00;1.90;;;30.70;23.00;;;;;;10428910;28;21072;-75
2022/06/25 18:12:30;;;;;;;1.73;1.60;;;30.60;23.00;;;;;;10433298;28;20224;-75
2022/06/25 18:17:33;;;;;;;1.20;1.20;;;30.60;22.70;;;;;;10435761;28;20233;-74
2022/06/25 18:22:38;;;;;;;1.10;1.10;;;30.50;23.10;;;;;;10430936;28;20252;-74
2022/06/25 18:27:43;;;;;;;1.27;1.20;;;30.40;23.00;;;;;;10433211;28;20320;-75
2022/06/25 18:32:46;;;;;;;1.00;1.00;;;30.30;22.80;;;;;;10430981;28;20234;-74
2022/06/25 18:37:49;;;;;;;1.20;1.10;;;30.20;23.10;;;;;;10427000;28;20606;-74
2022/06/25 18:42:54;;;;;;;0.80;0.80;;;30.20;23.20;;;;;;10431217;28;20240;-74
2022/06/25 18:47:57;;;;;;;0.90;0.90;;;30.10;24.10;;;;;;10430739;28;20235;-74
2022/06/25 18:53:01;;;;;;;0.90;0.90;;;29.90;24.20;;;;;;10437880;28;20767;-73
2022/06/25 18:58:06;;;;;;;1.23;1.13;;;29.80;24.30;;;;;;10432273;28;20242;-74
2022/06/25 19:03:09;;;;;;;1.20;1.20;;;29.70;24.50;;;;;;10422298;28;20225;-73
2022/06/25 19:08:12;;;;;;;1.17;1.10;;;29.50;24.80;;;;;;10425197;28;20662;-73
2022/06/25 19:13:17;;;;;;;0.97;0.97;;;29.40;25.00;;;;;;10426884;28;21167;-74
2022/06/25 19:18:20;;;;;;;1.10;1.10;;;29.20;25.20;;;;;;10429383;28;20236;-74
2022/06/25 19:23:23;;;;;;;1.60;1.27;;;29.10;25.30;;;;;;10430729;28;20227;-74
2022/06/25 19:28:28;;;;;;;1.17;1.10;;;28.90;25.40;;;;;;10425917;28;20260;-74
2022/06/25 19:33:38;;;;;;;1.93;1.20;;;28.80;25.60;;;;;;10429187;28;20232;-74
2022/06/25 19:38:41;;;;;;;1.70;1.07;;;28.60;25.70;;;;;;10429163;28;20229;-74
2022/06/25 19:43:46;;;;;;;2.13;1.10;;;28.50;25.80;;;;;;10422876;28;20243;-74
2022/06/25 19:48:50;;;;;;;1.07;1.07;;;28.30;26.10;;;;;;10429384;28;20255;-74
2022/06/25 19:53:58;;;;;;;0.97;0.97;;;28.20;26.30;;;;;;10430481;28;20229;-74
2022/06/25 19:59:05;;;;;;;1.10;1.03;;;28.00;26.40;;;;;;10431674;28;20313;-74
2022/06/25 20:04:09;;;;;;;1.33;1.30;;;27.90;27.00;;;;;;10435871;28;20213;-74
2022/06/25 20:09:12;;;;;;;1.43;1.30;;;27.80;26.80;;;;;;10435362;28;20225;-74
2022/06/25 20:14:19;;;;;;;1.20;1.20;;;27.50;26.70;;;;;;10438458;28;20247;-74
2022/06/25 20:19:22;;;;;;;2.27;2.00;;;27.30;27.20;;;;;;10439806;28;20229;-74
2022/06/25 20:24:30;;;;;;;4.47;2.70;;;27.10;27.20;;;;;;10436451;28;20228;-74
2022/06/25 20:29:35;;;;;;;2.70;2.10;;;27.00;27.40;;;;;;10441040;28;20232;-74
2022/06/25 20:34:38;;;;;;;2.10;1.90;;;26.90;27.80;;;;;;10436435;28;20597;-74
2022/06/25 20:39:42;;;;;;;3.83;2.27;;;26.80;27.70;;;;;;10437642;28;20217;-74
2022/06/25 20:44:46;;;;;;;2.93;1.70;;;26.80;27.80;;;;;;10438943;28;20661;-74
2022/06/25 20:49:49;;;;;;;1.70;1.60;;;26.60;28.10;;;;;;10438194;28;20224;-74
2022/06/25 20:54:52;;;;;;;1.93;1.50;;;26.50;28.00;;;;;;10438357;28;20264;-74
2022/06/25 20:59:57;;;;;;;1.77;1.40;;;26.40;28.20;;;;;;10438431;28;20240;-74
2022/06/25 21:10:21;;;;;;;1.80;1.70;;;26.10;28.40;;;;;;10438651;28;20223;-74
2022/06/25 21:15:26;;;;;;;2.43;1.50;;;26.00;28.50;;;;;;10430304;28;20237;-74
2022/06/25 21:20:30;;;;;;;1.60;1.50;;;25.90;29.00;;;;;;10431338;28;20228;-74
2022/06/25 21:25:33;;;;;;;1.97;1.87;;;25.80;29.00;;;;;;10429816;28;20312;-74
2022/06/25 21:30:38;;;;;;;2.00;1.90;;;25.70;29.00;;;;;;10430720;28;20319;-74
2022/06/25 21:35:42;;;;;;;4.87;1.77;;;25.60;29.00;;;;;;10434088;28;20237;-74
2022/06/25 21:40:45;;;;;;;1.60;1.50;;;25.50;28.90;;;;;;10437659;28;20244;-74
2022/06/25 21:45:50;;;;;;;1.67;1.57;;;25.40;28.90;;;;;;10426048;28;20621;-74
2022/06/25 21:50:53;;;;;;;1.53;1.43;;;25.30;29.10;;;;;;10431699;28;20294;-74
2022/06/25 21:55:56;;;;;;;1.77;1.40;;;25.30;28.80;;;;;;10433586;28;20244;-74
2022/06/25 22:01:01;;;;;;;1.70;1.57;;;25.20;29.00;;;;;;10438339;28;20221;-74
2022/06/25 22:06:04;;;;;;;2.70;1.47;;;25.10;29.30;;;;;;10430438;28;20217;-74
2022/06/25 22:11:08;;;;;;;2.00;1.60;;;25.00;29.20;;;;;;10432056;28;20590;-74
2022/06/25 22:16:13;;;;;;;1.97;1.87;;;24.90;29.20;;;;;;10440553;28;20241;-74
2022/06/25 22:21:16;;;;;;;2.27;1.70;;;24.70;29.70;;;;;;10428227;28;20218;-74
2022/06/25 22:26:19;;;;;;;1.83;1.70;;;24.40;29.50;;;;;;10435002;28;20252;-74
2022/06/25 22:31:24;;;;;;;1.80;1.70;;;24.10;29.90;;;;;;10434225;28;20224;-74
2022/06/25 22:36:27;;;;;;;1.70;1.60;;;24.00;30.50;;;;;;10434678;28;20851;-74
2022/06/25 22:41:30;;;;;;;3.23;2.43;;;23.70;30.10;;;;;;10429351;28;20225;-74
2022/06/25 22:46:35;;;;;;;2.20;2.00;;;23.60;30.40;;;;;;10433624;28;20239;-74
2022/06/25 22:51:38;;;;;;;1.70;1.60;;;23.40;31.30;;;;;;10422742;28;20220;-74
2022/06/25 22:56:42;;;;;;;2.10;1.47;;;23.30;31.00;;;;;;10432277;28;20258;-74
2022/06/25 23:01:46;;;;;;;2.47;1.43;;;23.10;31.00;;;;;;10421647;28;20702;-74
2022/06/25 23:06:50;;;;;;;1.70;1.60;;;23.10;32.10;;;;;;10416974;28;20235;-74
2022/06/25 23:11:54;;;;;;;1.57;1.47;;;23.00;31.50;;;;;;10424482;28;20221;-74
2022/06/25 23:16:59;;;;;;;1.50;1.40;;;23.00;31.50;;;;;;10428967;28;20733;-74
2022/06/25 23:22:02;;;;;;;2.60;1.90;;;22.90;32.30;;;;;;10419012;28;20232;-74
2022/06/25 23:27:06;;;;;;;3.67;2.43;;;22.90;31.90;;;;;;10431883;28;20237;-74
2022/06/25 23:32:11;;;;;;;2.50;2.30;;;22.70;31.90;;;;;;10421596;28;20235;-74
2022/06/25 23:37:14;;;;;;;1.80;1.70;;;22.60;33.00;;;;;;10421405;28;20682;-74
2022/06/25 23:42:18;;;;;;;2.40;1.97;;;22.60;32.50;;;;;;10419327;28;20217;-74
2022/06/25 23:47:22;;;;;;;2.90;2.20;;;22.60;32.50;;;;;;10436741;28;20233;-74
2022/06/25 23:52:26;;;;;;;2.20;2.00;;;22.50;33.00;;;;;;10427922;28;20224;-74
2022/06/25 23:57:29;;;;;;;1.70;1.60;;;22.40;32.60;;;;;;10433799;28;20709;-74
